sensor_id;sensor_type;location;lat;lon;timestamp;P1;durP1;ratioP1;P2;durP2;ratioP2
71648;SDS011;59492;45.638;11.714;2023-01-16T00:00:57;6.90;;;6.10;;
71648;SDS011;59492;45.638;11.714;2023-01-16T00:03:25;7.00;;;5.80;;
71648;SDS011;59492;45.638;11.714;2023-01-16T00:05:51;6.50;;;5.70;;
71648;SDS011;59492;45.638;11.714;2023-01-16T00:08:16;9.20;;;6.30;;
71648;SDS011;59492;45.638;11.714;2023-01-16T00:10:43;6.70;;;5.60;;
71648;SDS011;59492;45.638;11.714;2023-01-16T00:13:12;7.00;;;6.10;;
71648;SDS011;59492;45.638;11.714;2023-01-16T00:15:43;7.50;;;6.50;;
71648;SDS011;59492;45.638;11.714;2023-01-16T00:18:09;8.90;;;6.80;;
71648;SDS011;59492;45.638;11.714;2023-01-16T00:20:35;7.70;;;6.40;;
71648;SDS011;59492;45.638;11.714;2023-01-16T00:23:01;7.40;;;6.30;;
71648;SDS011;59492;45.638;11.714;2023-01-16T00:25:26;7.70;;;6.90;;
71648;SDS011;59492;45.638;11.714;2023-01-16T00:27:52;7.90;;;6.70;;
71648;SDS011;59492;45.638;11.714;2023-01-16T00:30:17;6.80;;;6.10;;
71648;SDS011;59492;45.638;11.714;2023-01-16T00:32:44;7.30;;;6.00;;
71648;SDS011;59492;45.638;11.714;2023-01-16T00:35:10;6.90;;;6.20;;
71648;SDS011;59492;45.638;11.714;2023-01-16T00:37:35;6.70;;;6.00;;
71648;SDS011;59492;45.638;11.714;2023-01-16T00:40:01;6.90;;;6.00;;
71648;SDS011;59492;45.638;11.714;2023-01-16T00:42:26;8.70;;;6.80;;
71648;SDS011;59492;45.638;11.714;2023-01-16T00:44:52;8.30;;;6.60;;
71648;SDS011;59492;45.638;11.714;2023-01-16T00:47:17;7.30;;;6.60;;
71648;SDS011;59492;45.638;11.714;2023-01-16T00:49:43;12.00;;;6.80;;
71648;SDS011;59492;45.638;11.714;2023-01-16T00:52:08;7.00;;;6.20;;
71648;SDS011;59492;45.638;11.714;2023-01-16T00:54:34;7.90;;;6.30;;
71648;SDS011;59492;45.638;11.714;2023-01-16T00:56:59;7.60;;;6.80;;
71648;SDS011;59492;45.638;11.714;2023-01-16T00:59:35;8.40;;;6.60;;
71648;SDS011;59492;45.638;11.714;2023-01-16T01:02:01;8.10;;;6.90;;
71648;SDS011;59492;45.638;11.714;2023-01-16T01:04:27;7.80;;;6.60;;
71648;SDS011;59492;45.638;11.714;2023-01-16T01:06:54;7.60;;;6.80;;
71648;SDS011;59492;45.638;11.714;2023-01-16T01:09:19;8.00;;;6.60;;
71648;SDS011;59492;45.638;11.714;2023-01-16T01:11:45;8.90;;;6.90;;
71648;SDS011;59492;45.638;11.714;2023-01-16T01:14:10;8.30;;;6.60;;
71648;SDS011;59492;45.638;11.714;2023-01-16T01:16:36;7.20;;;6.10;;
71648;SDS011;59492;45.638;11.714;2023-01-16T01:19:01;7.40;;;6.00;;
71648;SDS011;59492;45.638;11.714;2023-01-16T01:21:27;8.50;;;6.90;;
71648;SDS011;59492;45.638;11.714;2023-01-16T01:23:54;7.40;;;6.40;;
71648;SDS011;59492;45.638;11.714;2023-01-16T01:26:21;9.60;;;6.90;;
71648;SDS011;59492;45.638;11.714;2023-01-16T01:28:46;9.20;;;7.00;;
71648;SDS011;59492;45.638;11.714;2023-01-16T01:31:12;7.80;;;6.20;;
71648;SDS011;59492;45.638;11.714;2023-01-16T01:33:38;7.80;;;6.70;;
71648;SDS011;59492;45.638;11.714;2023-01-16T01:36:04;7.60;;;6.60;;
71648;SDS011;59492;45.638;11.714;2023-01-16T01:38:31;7.40;;;6.70;;
71648;SDS011;59492;45.638;11.714;2023-01-16T01:40:58;7.70;;;6.50;;
71648;SDS011;59492;45.638;11.714;2023-01-16T01:46:22;7.30;;;6.50;;
71648;SDS011;59492;45.638;11.714;2023-01-16T01:48:54;7.30;;;6.60;;
71648;SDS011;59492;45.638;11.714;2023-01-16T01:51:34;7.50;;;6.60;;
71648;SDS011;59492;45.638;11.714;2023-01-16T01:54:07;7.80;;;7.00;;
71648;SDS011;59492;45.638;11.714;2023-01-16T01:56:41;9.00;;;6.90;;
71648;SDS011;59492;45.638;11.714;2023-01-16T01:59:15;6.70;;;5.80;;
71648;SDS011;59492;45.638;11.714;2023-01-16T02:01:49;7.90;;;6.80;;
71648;SDS011;59492;45.638;11.714;2023-01-16T02:04:16;7.30;;;6.60;;
71648;SDS011;59492;45.638;11.714;2023-01-16T02:06:48;8.80;;;6.90;;
71648;SDS011;59492;45.638;11.714;2023-01-16T02:09:15;8.40;;;6.90;;
71648;SDS011;59492;45.638;11.714;2023-01-16T02:11:53;7.70;;;6.80;;
71648;SDS011;59492;45.638;11.714;2023-01-16T02:14:20;8.10;;;6.80;;
71648;SDS011;59492;45.638;11.714;2023-01-16T02:16:48;8.70;;;6.50;;
71648;SDS011;59492;45.638;11.714;2023-01-16T02:19:45;7.00;;;6.10;;
71648;SDS011;59492;45.638;11.714;2023-01-16T02:33:48;7.70;;;6.40;;
71648;SDS011;59492;45.638;11.714;2023-01-16T02:36:20;7.10;;;6.40;;
71648;SDS011;59492;45.638;11.714;2023-01-16T02:39:05;8.50;;;6.60;;
71648;SDS011;59492;45.638;11.714;2023-01-16T02:49:37;7.50;;;6.30;;
71648;SDS011;59492;45.638;11.714;2023-01-16T02:52:33;7.60;;;6.30;;
71648;SDS011;59492;45.638;11.714;2023-01-16T02:55:10;7.00;;;6.30;;
71648;SDS011;59492;45.638;11.714;2023-01-16T02:57:40;7.20;;;6.40;;
71648;SDS011;59492;45.638;11.714;2023-01-16T03:00:12;8.20;;;6.60;;
71648;SDS011;59492;45.638;11.714;2023-01-16T03:02:42;7.60;;;6.80;;
71648;SDS011;59492;45.638;11.714;2023-01-16T03:05:08;7.80;;;7.00;;
71648;SDS011;59492;45.638;11.714;2023-01-16T03:18:41;7.10;;;6.20;;
71648;SDS011;59492;45.638;11.714;2023-01-16T03:24:27;6.80;;;5.50;;
71648;SDS011;59492;45.638;11.714;2023-01-16T03:27:15;5.90;;;5.20;;
71648;SDS011;59492;45.638;11.714;2023-01-16T03:29:52;7.00;;;6.30;;
71648;SDS011;59492;45.638;11.714;2023-01-16T03:37:57;6.90;;;6.20;;
71648;SDS011;59492;45.638;11.714;2023-01-16T03:40:30;6.70;;;6.00;;
71648;SDS011;59492;45.638;11.714;2023-01-16T03:51:21;6.90;;;5.50;;
71648;SDS011;59492;45.638;11.714;2023-01-16T03:54:04;6.30;;;5.60;;
71648;SDS011;59492;45.638;11.714;2023-01-16T03:56:37;7.40;;;6.10;;
71648;SDS011;59492;45.638;11.714;2023-01-16T03:59:10;7.10;;;6.20;;
71648;SDS011;59492;45.638;11.714;2023-01-16T04:01:37;6.20;;;5.60;;
71648;SDS011;59492;45.638;11.714;2023-01-16T04:04:14;6.10;;;5.50;;
71648;SDS011;59492;45.638;11.714;2023-01-16T04:09:20;6.70;;;5.60;;
71648;SDS011;59492;45.638;11.714;2023-01-16T04:11:49;6.20;;;5.30;;
71648;SDS011;59492;45.638;11.714;2023-01-16T04:14:16;7.50;;;5.90;;
71648;SDS011;59492;45.638;11.714;2023-01-16T04:16:46;6.30;;;5.70;;
71648;SDS011;59492;45.638;11.714;2023-01-16T04:19:13;6.20;;;5.60;;
71648;SDS011;59492;45.638;11.714;2023-01-16T04:21:44;8.10;;;5.50;;
71648;SDS011;59492;45.638;11.714;2023-01-16T04:24:10;6.30;;;5.60;;
71648;SDS011;59492;45.638;11.714;2023-01-16T04:26:36;6.30;;;5.60;;
71648;SDS011;59492;45.638;11.714;2023-01-16T04:29:02;6.90;;;6.20;;
71648;SDS011;59492;45.638;11.714;2023-01-16T04:31:27;6.20;;;5.10;;
71648;SDS011;59492;45.638;11.714;2023-01-16T04:33:53;6.60;;;5.40;;
71648;SDS011;59492;45.638;11.714;2023-01-16T04:36:19;6.00;;;5.40;;
71648;SDS011;59492;45.638;11.714;2023-01-16T04:38:45;6.00;;;5.30;;
71648;SDS011;59492;45.638;11.714;2023-01-16T04:41:11;6.40;;;5.20;;
71648;SDS011;59492;45.638;11.714;2023-01-16T04:43:36;9.10;;;5.20;;
71648;SDS011;59492;45.638;11.714;2023-01-16T04:46:02;5.00;;;4.50;;
71648;SDS011;59492;45.638;11.714;2023-01-16T04:48:28;5.30;;;4.60;;
71648;SDS011;59492;45.638;11.714;2023-01-16T04:50:53;6.20;;;5.40;;
71648;SDS011;59492;45.638;11.714;2023-01-16T04:53:19;5.70;;;5.10;;
71648;SDS011;59492;45.638;11.714;2023-01-16T04:55:44;6.10;;;5.30;;
71648;SDS011;59492;45.638;11.714;2023-01-16T04:58:10;5.60;;;5.00;;
71648;SDS011;59492;45.638;11.714;2023-01-16T05:00:35;6.40;;;5.60;;
71648;SDS011;59492;45.638;11.714;2023-01-16T05:03:01;6.20;;;5.20;;
71648;SDS011;59492;45.638;11.714;2023-01-16T05:05:26;5.50;;;5.00;;
71648;SDS011;59492;45.638;11.714;2023-01-16T05:07:52;6.90;;;5.10;;
71648;SDS011;59492;45.638;11.714;2023-01-16T05:10:36;5.40;;;4.90;;
71648;SDS011;59492;45.638;11.714;2023-01-16T05:13:02;6.30;;;5.70;;
71648;SDS011;59492;45.638;11.714;2023-01-16T05:15:28;5.40;;;4.80;;
71648;SDS011;59492;45.638;11.714;2023-01-16T05:17:54;6.30;;;5.20;;
71648;SDS011;59492;45.638;11.714;2023-01-16T05:20:19;5.30;;;4.80;;
71648;SDS011;59492;45.638;11.714;2023-01-16T05:22:45;4.90;;;4.40;;
71648;SDS011;59492;45.638;11.714;2023-01-16T05:25:13;4.90;;;4.40;;
71648;SDS011;59492;45.638;11.714;2023-01-16T05:27:39;5.80;;;4.40;;
71648;SDS011;59492;45.638;11.714;2023-01-16T05:30:05;5.20;;;4.70;;
71648;SDS011;59492;45.638;11.714;2023-01-16T05:32:32;5.60;;;4.70;;
71648;SDS011;59492;45.638;11.714;2023-01-16T05:34:58;5.20;;;4.70;;
71648;SDS011;59492;45.638;11.714;2023-01-16T05:37:27;5.50;;;4.80;;
71648;SDS011;59492;45.638;11.714;2023-01-16T05:39:54;6.10;;;5.30;;
71648;SDS011;59492;45.638;11.714;2023-01-16T05:42:26;5.50;;;5.00;;
71648;SDS011;59492;45.638;11.714;2023-01-16T05:44:52;5.60;;;5.10;;
71648;SDS011;59492;45.638;11.714;2023-01-16T05:47:18;5.30;;;4.70;;
71648;SDS011;59492;45.638;11.714;2023-01-16T05:49:44;6.10;;;5.00;;
71648;SDS011;59492;45.638;11.714;2023-01-16T05:52:10;5.60;;;5.00;;
71648;SDS011;59492;45.638;11.714;2023-01-16T05:54:36;5.50;;;5.00;;
71648;SDS011;59492;45.638;11.714;2023-01-16T05:57:02;5.80;;;5.00;;
71648;SDS011;59492;45.638;11.714;2023-01-16T05:59:29;5.10;;;4.60;;
71648;SDS011;59492;45.638;11.714;2023-01-16T06:01:57;5.40;;;4.90;;
71648;SDS011;59492;45.638;11.714;2023-01-16T06:04:23;5.70;;;5.10;;
71648;SDS011;59492;45.638;11.714;2023-01-16T06:06:50;4.60;;;4.20;;
71648;SDS011;59492;45.638;11.714;2023-01-16T06:09:16;4.70;;;4.30;;
71648;SDS011;59492;45.638;11.714;2023-01-16T06:11:42;4.60;;;4.10;;
71648;SDS011;59492;45.638;11.714;2023-01-16T06:14:10;4.60;;;4.20;;
71648;SDS011;59492;45.638;11.714;2023-01-16T06:16:36;5.00;;;4.50;;
71648;SDS011;59492;45.638;11.714;2023-01-16T06:19:02;5.60;;;5.00;;
71648;SDS011;59492;45.638;11.714;2023-01-16T06:21:27;5.40;;;4.80;;
71648;SDS011;59492;45.638;11.714;2023-01-16T06:23:53;5.30;;;4.80;;
71648;SDS011;59492;45.638;11.714;2023-01-16T06:26:20;5.20;;;4.70;;
71648;SDS011;59492;45.638;11.714;2023-01-16T06:28:50;5.20;;;4.70;;
71648;SDS011;59492;45.638;11.714;2023-01-16T06:31:15;5.20;;;4.50;;
71648;SDS011;59492;45.638;11.714;2023-01-16T06:33:41;6.40;;;4.70;;
71648;SDS011;59492;45.638;11.714;2023-01-16T06:36:07;5.70;;;5.10;;
71648;SDS011;59492;45.638;11.714;2023-01-16T06:38:34;4.90;;;4.40;;
71648;SDS011;59492;45.638;11.714;2023-01-16T06:41:01;4.90;;;4.30;;
71648;SDS011;59492;45.638;11.714;2023-01-16T06:43:27;5.40;;;4.90;;
71648;SDS011;59492;45.638;11.714;2023-01-16T06:45:54;5.30;;;4.80;;
71648;SDS011;59492;45.638;11.714;2023-01-16T06:48:21;5.20;;;4.60;;
71648;SDS011;59492;45.638;11.714;2023-01-16T06:50:47;4.50;;;4.10;;
71648;SDS011;59492;45.638;11.714;2023-01-16T06:53:13;4.90;;;4.20;;
71648;SDS011;59492;45.638;11.714;2023-01-16T06:55:40;4.80;;;4.20;;
71648;SDS011;59492;45.638;11.714;2023-01-16T06:58:06;5.10;;;4.60;;
71648;SDS011;59492;45.638;11.714;2023-01-16T07:00:32;5.60;;;4.30;;
71648;SDS011;59492;45.638;11.714;2023-01-16T07:02:59;5.40;;;4.60;;
71648;SDS011;59492;45.638;11.714;2023-01-16T07:05:26;4.30;;;3.90;;
71648;SDS011;59492;45.638;11.714;2023-01-16T07:07:54;4.70;;;4.20;;
71648;SDS011;59492;45.638;11.714;2023-01-16T07:10:20;5.50;;;4.40;;
71648;SDS011;59492;45.638;11.714;2023-01-16T07:12:48;6.20;;;4.30;;
71648;SDS011;59492;45.638;11.714;2023-01-16T07:15:14;5.40;;;4.40;;
71648;SDS011;59492;45.638;11.714;2023-01-16T07:17:59;5.10;;;4.30;;
71648;SDS011;59492;45.638;11.714;2023-01-16T07:20:53;4.80;;;4.30;;
71648;SDS011;59492;45.638;11.714;2023-01-16T07:23:41;5.70;;;4.50;;
71648;SDS011;59492;45.638;11.714;2023-01-16T07:26:10;15.90;;;4.90;;
71648;SDS011;59492;45.638;11.714;2023-01-16T07:28:42;5.10;;;4.50;;
71648;SDS011;59492;45.638;11.714;2023-01-16T07:31:17;5.00;;;4.50;;
71648;SDS011;59492;45.638;11.714;2023-01-16T07:33:48;4.60;;;4.00;;
71648;SDS011;59492;45.638;11.714;2023-01-16T07:36:15;5.10;;;4.40;;
71648;SDS011;59492;45.638;11.714;2023-01-16T07:38:44;7.60;;;4.40;;
71648;SDS011;59492;45.638;11.714;2023-01-16T07:41:18;5.60;;;4.00;;
71648;SDS011;59492;45.638;11.714;2023-01-16T07:44:03;4.90;;;4.40;;
71648;SDS011;59492;45.638;11.714;2023-01-16T07:46:32;6.10;;;4.40;;
71648;SDS011;59492;45.638;11.714;2023-01-16T07:49:00;9.20;;;5.00;;
71648;SDS011;59492;45.638;11.714;2023-01-16T07:51:26;6.10;;;4.20;;
71648;SDS011;59492;45.638;11.714;2023-01-16T07:53:52;4.30;;;3.90;;
71648;SDS011;59492;45.638;11.714;2023-01-16T07:56:17;5.80;;;3.90;;
71648;SDS011;59492;45.638;11.714;2023-01-16T07:58:43;5.20;;;4.20;;
71648;SDS011;59492;45.638;11.714;2023-01-16T08:01:09;5.30;;;4.30;;
71648;SDS011;59492;45.638;11.714;2023-01-16T08:03:35;4.70;;;4.20;;
71648;SDS011;59492;45.638;11.714;2023-01-16T08:06:01;4.70;;;4.20;;
71648;SDS011;59492;45.638;11.714;2023-01-16T08:08:28;4.90;;;4.40;;
71648;SDS011;59492;45.638;11.714;2023-01-16T08:10:57;6.20;;;4.00;;
71648;SDS011;59492;45.638;11.714;2023-01-16T08:13:24;5.50;;;3.80;;
71648;SDS011;59492;45.638;11.714;2023-01-16T08:15:50;9.00;;;4.20;;
71648;SDS011;59492;45.638;11.714;2023-01-16T08:18:16;6.60;;;4.10;;
71648;SDS011;59492;45.638;11.714;2023-01-16T08:20:43;5.70;;;4.30;;
71648;SDS011;59492;45.638;11.714;2023-01-16T08:23:10;11.50;;;4.00;;
71648;SDS011;59492;45.638;11.714;2023-01-16T08:25:36;8.80;;;4.70;;
71648;SDS011;59492;45.638;11.714;2023-01-16T08:28:02;6.40;;;4.20;;
71648;SDS011;59492;45.638;11.714;2023-01-16T08:30:28;7.40;;;4.40;;
71648;SDS011;59492;45.638;11.714;2023-01-16T08:33:00;6.10;;;4.40;;
71648;SDS011;59492;45.638;11.714;2023-01-16T08:35:27;6.60;;;4.50;;
71648;SDS011;59492;45.638;11.714;2023-01-16T08:37:53;5.80;;;4.40;;
71648;SDS011;59492;45.638;11.714;2023-01-16T08:40:18;5.80;;;4.30;;
71648;SDS011;59492;45.638;11.714;2023-01-16T08:42:44;6.80;;;4.00;;
71648;SDS011;59492;45.638;11.714;2023-01-16T08:45:29;6.60;;;4.00;;
71648;SDS011;59492;45.638;11.714;2023-01-16T08:48:19;5.60;;;4.20;;
71648;SDS011;59492;45.638;11.714;2023-01-16T08:51:13;6.50;;;3.90;;
71648;SDS011;59492;45.638;11.714;2023-01-16T08:53:51;5.40;;;4.40;;
71648;SDS011;59492;45.638;11.714;2023-01-16T08:56:21;5.60;;;4.30;;
71648;SDS011;59492;45.638;11.714;2023-01-16T08:58:52;4.90;;;3.80;;
71648;SDS011;59492;45.638;11.714;2023-01-16T09:01:44;6.10;;;4.30;;
71648;SDS011;59492;45.638;11.714;2023-01-16T09:04:38;8.20;;;4.70;;
71648;SDS011;59492;45.638;11.714;2023-01-16T09:07:19;6.20;;;4.50;;
71648;SDS011;59492;45.638;11.714;2023-01-16T09:09:44;6.00;;;4.30;;
71648;SDS011;59492;45.638;11.714;2023-01-16T09:12:11;8.00;;;4.30;;
71648;SDS011;59492;45.638;11.714;2023-01-16T09:15:04;5.00;;;4.50;;
71648;SDS011;59492;45.638;11.714;2023-01-16T09:17:30;6.10;;;4.80;;
71648;SDS011;59492;45.638;11.714;2023-01-16T09:19:55;6.80;;;4.90;;
71648;SDS011;59492;45.638;11.714;2023-01-16T09:22:21;6.60;;;4.30;;
71648;SDS011;59492;45.638;11.714;2023-01-16T09:24:47;7.50;;;4.40;;
71648;SDS011;59492;45.638;11.714;2023-01-16T09:27:12;6.50;;;4.50;;
71648;SDS011;59492;45.638;11.714;2023-01-16T09:29:39;6.20;;;4.80;;
71648;SDS011;59492;45.638;11.714;2023-01-16T09:32:05;6.90;;;4.50;;
71648;SDS011;59492;45.638;11.714;2023-01-16T09:34:35;6.80;;;3.90;;
71648;SDS011;59492;45.638;11.714;2023-01-16T09:37:01;5.70;;;4.50;;
71648;SDS011;59492;45.638;11.714;2023-01-16T09:39:28;7.60;;;4.70;;
71648;SDS011;59492;45.638;11.714;2023-01-16T09:42:01;6.80;;;5.40;;
71648;SDS011;59492;45.638;11.714;2023-01-16T09:44:49;7.30;;;4.70;;
71648;SDS011;59492;45.638;11.714;2023-01-16T09:47:17;8.70;;;5.00;;
71648;SDS011;59492;45.638;11.714;2023-01-16T09:49:53;9.30;;;5.00;;
71648;SDS011;59492;45.638;11.714;2023-01-16T09:52:24;10.50;;;4.70;;
71648;SDS011;59492;45.638;11.714;2023-01-16T09:55:15;6.50;;;4.80;;
71648;SDS011;59492;45.638;11.714;2023-01-16T09:58:05;7.10;;;4.90;;
71648;SDS011;59492;45.638;11.714;2023-01-16T10:00:53;6.50;;;4.80;;
71648;SDS011;59492;45.638;11.714;2023-01-16T10:03:20;7.00;;;5.00;;
71648;SDS011;59492;45.638;11.714;2023-01-16T10:06:11;6.00;;;4.80;;
71648;SDS011;59492;45.638;11.714;2023-01-16T10:08:41;7.80;;;4.40;;
71648;SDS011;59492;45.638;11.714;2023-01-16T10:16:32;9.10;;;7.00;;
71648;SDS011;59492;45.638;11.714;2023-01-16T10:19:27;11.50;;;6.40;;
71648;SDS011;59492;45.638;11.714;2023-01-16T10:30:54;11.30;;;8.40;;
71648;SDS011;59492;45.638;11.714;2023-01-16T10:34:10;14.60;;;10.20;;
71648;SDS011;59492;45.638;11.714;2023-01-16T10:36:29;13.40;;;9.80;;
71648;SDS011;59492;45.638;11.714;2023-01-16T10:38:58;12.10;;;10.10;;
71648;SDS011;59492;45.638;11.714;2023-01-16T10:41:32;14.70;;;10.20;;
71648;SDS011;59492;45.638;11.714;2023-01-16T10:44:23;16.10;;;10.90;;
71648;SDS011;59492;45.638;11.714;2023-01-16T10:47:14;13.50;;;10.80;;
71648;SDS011;59492;45.638;11.714;2023-01-16T10:50:00;13.20;;;10.60;;
71648;SDS011;59492;45.638;11.714;2023-01-16T10:52:26;14.90;;;11.70;;
71648;SDS011;59492;45.638;11.714;2023-01-16T10:54:52;17.50;;;11.50;;
71648;SDS011;59492;45.638;11.714;2023-01-16T10:57:22;15.40;;;11.90;;
71648;SDS011;59492;45.638;11.714;2023-01-16T10:59:50;16.40;;;11.60;;
71648;SDS011;59492;45.638;11.714;2023-01-16T11:02:29;14.40;;;10.90;;
71648;SDS011;59492;45.638;11.714;2023-01-16T11:04:58;14.10;;;11.00;;
71648;SDS011;59492;45.638;11.714;2023-01-16T11:07:26;15.20;;;11.70;;
71648;SDS011;59492;45.638;11.714;2023-01-16T11:09:54;14.70;;;11.70;;
71648;SDS011;59492;45.638;11.714;2023-01-16T11:12:23;15.50;;;12.40;;
71648;SDS011;59492;45.638;11.714;2023-01-16T11:15:16;16.00;;;12.70;;
71648;SDS011;59492;45.638;11.714;2023-01-16T11:18:17;15.40;;;12.20;;
71648;SDS011;59492;45.638;11.714;2023-01-16T11:20:54;16.80;;;12.40;;
71648;SDS011;59492;45.638;11.714;2023-01-16T11:23:38;14.00;;;12.50;;
71648;SDS011;59492;45.638;11.714;2023-01-16T11:26:06;15.60;;;12.90;;
71648;SDS011;59492;45.638;11.714;2023-01-16T11:28:34;18.00;;;12.80;;
71648;SDS011;59492;45.638;11.714;2023-01-16T11:31:02;16.00;;;12.30;;
71648;SDS011;59492;45.638;11.714;2023-01-16T11:33:35;19.40;;;13.60;;
71648;SDS011;59492;45.638;11.714;2023-01-16T11:36:04;14.20;;;11.90;;
71648;SDS011;59492;45.638;11.714;2023-01-16T11:38:32;14.70;;;12.20;;
71648;SDS011;59492;45.638;11.714;2023-01-16T11:41:00;14.00;;;12.40;;
71648;SDS011;59492;45.638;11.714;2023-01-16T11:43:29;15.50;;;13.00;;
71648;SDS011;59492;45.638;11.714;2023-01-16T11:46:36;14.30;;;12.00;;
71648;SDS011;59492;45.638;11.714;2023-01-16T11:49:04;16.80;;;12.70;;
71648;SDS011;59492;45.638;11.714;2023-01-16T11:51:39;16.60;;;12.40;;
71648;SDS011;59492;45.638;11.714;2023-01-16T11:54:10;17.60;;;11.60;;
71648;SDS011;59492;45.638;11.714;2023-01-16T12:10:42;12.40;;;9.00;;
71648;SDS011;59492;45.638;11.714;2023-01-16T12:13:54;15.70;;;8.80;;
71648;SDS011;59492;45.638;11.714;2023-01-16T12:40:03;12.50;;;8.10;;
71648;SDS011;59492;45.638;11.714;2023-01-16T12:46:09;10.30;;;7.10;;
71648;SDS011;59492;45.638;11.714;2023-01-16T12:54:22;16.10;;;7.50;;
71648;SDS011;59492;45.638;11.714;2023-01-16T13:00:08;9.00;;;7.30;;
71648;SDS011;59492;45.638;11.714;2023-01-16T13:02:41;12.60;;;7.10;;
71648;SDS011;59492;45.638;11.714;2023-01-16T13:05:12;10.00;;;7.40;;
71648;SDS011;59492;45.638;11.714;2023-01-16T13:07:57;14.50;;;7.80;;
71648;SDS011;59492;45.638;11.714;2023-01-16T13:10:33;13.60;;;7.80;;
71648;SDS011;59492;45.638;11.714;2023-01-16T13:13:25;9.70;;;7.00;;
71648;SDS011;59492;45.638;11.714;2023-01-16T13:16:04;11.40;;;8.30;;
71648;SDS011;59492;45.638;11.714;2023-01-16T13:18:40;14.00;;;7.60;;
71648;SDS011;59492;45.638;11.714;2023-01-16T13:21:20;15.60;;;7.20;;
71648;SDS011;59492;45.638;11.714;2023-01-16T13:23:54;9.80;;;6.90;;
71648;SDS011;59492;45.638;11.714;2023-01-16T13:26:24;10.40;;;6.50;;
71648;SDS011;59492;45.638;11.714;2023-01-16T13:34:18;10.00;;;6.60;;
71648;SDS011;59492;45.638;11.714;2023-01-16T13:42:10;8.20;;;6.30;;
71648;SDS011;59492;45.638;11.714;2023-01-16T13:44:38;10.90;;;6.40;;
71648;SDS011;59492;45.638;11.714;2023-01-16T13:47:27;9.10;;;6.40;;
71648;SDS011;59492;45.638;11.714;2023-01-16T13:50:06;8.30;;;6.00;;
71648;SDS011;59492;45.638;11.714;2023-01-16T13:52:41;8.20;;;5.90;;
71648;SDS011;59492;45.638;11.714;2023-01-16T13:55:24;8.30;;;6.10;;
71648;SDS011;59492;45.638;11.714;2023-01-16T13:58:06;7.00;;;5.80;;
71648;SDS011;59492;45.638;11.714;2023-01-16T14:00:40;8.90;;;5.60;;
71648;SDS011;59492;45.638;11.714;2023-01-16T14:03:21;7.90;;;5.60;;
71648;SDS011;59492;45.638;11.714;2023-01-16T14:05:50;7.50;;;5.00;;
71648;SDS011;59492;45.638;11.714;2023-01-16T14:11:34;7.00;;;5.20;;
71648;SDS011;59492;45.638;11.714;2023-01-16T14:17:10;7.30;;;4.80;;
71648;SDS011;59492;45.638;11.714;2023-01-16T14:19:50;6.60;;;5.30;;
71648;SDS011;59492;45.638;11.714;2023-01-16T14:22:41;9.30;;;5.20;;
71648;SDS011;59492;45.638;11.714;2023-01-16T14:25:26;6.50;;;5.00;;
71648;SDS011;59492;45.638;11.714;2023-01-16T14:27:58;6.30;;;4.90;;
71648;SDS011;59492;45.638;11.714;2023-01-16T14:30:26;5.90;;;4.70;;
71648;SDS011;59492;45.638;11.714;2023-01-16T14:33:04;6.20;;;5.40;;
71648;SDS011;59492;45.638;11.714;2023-01-16T14:35:42;7.20;;;4.90;;
71648;SDS011;59492;45.638;11.714;2023-01-16T14:38:16;6.90;;;4.80;;
71648;SDS011;59492;45.638;11.714;2023-01-16T14:40:52;5.40;;;4.40;;
71648;SDS011;59492;45.638;11.714;2023-01-16T14:50:14;8.00;;;4.60;;
71648;SDS011;59492;45.638;11.714;2023-01-16T15:01:27;6.00;;;5.00;;
71648;SDS011;59492;45.638;11.714;2023-01-16T15:04:13;5.30;;;4.70;;
71648;SDS011;59492;45.638;11.714;2023-01-16T15:06:43;6.20;;;4.70;;
71648;SDS011;59492;45.638;11.714;2023-01-16T15:09:13;7.50;;;4.80;;
71648;SDS011;59492;45.638;11.714;2023-01-16T15:11:55;6.40;;;4.90;;
71648;SDS011;59492;45.638;11.714;2023-01-16T15:14:23;6.50;;;5.00;;
71648;SDS011;59492;45.638;11.714;2023-01-16T15:17:01;7.60;;;5.30;;
71648;SDS011;59492;45.638;11.714;2023-01-16T15:19:56;6.30;;;5.10;;
71648;SDS011;59492;45.638;11.714;2023-01-16T15:22:45;8.20;;;5.10;;
71648;SDS011;59492;45.638;11.714;2023-01-16T15:25:20;6.20;;;4.80;;
71648;SDS011;59492;45.638;11.714;2023-01-16T15:30:48;4.90;;;4.30;;
71648;SDS011;59492;45.638;11.714;2023-01-16T15:33:37;7.10;;;4.80;;
71648;SDS011;59492;45.638;11.714;2023-01-16T15:38:58;6.20;;;4.80;;
71648;SDS011;59492;45.638;11.714;2023-01-16T15:41:26;6.70;;;5.10;;
71648;SDS011;59492;45.638;11.714;2023-01-16T15:44:15;6.70;;;4.90;;
71648;SDS011;59492;45.638;11.714;2023-01-16T15:49:59;6.00;;;4.50;;
71648;SDS011;59492;45.638;11.714;2023-01-16T15:52:29;5.20;;;4.10;;
71648;SDS011;59492;45.638;11.714;2023-01-16T15:54:56;6.30;;;4.30;;
71648;SDS011;59492;45.638;11.714;2023-01-16T15:57:22;5.60;;;4.70;;
71648;SDS011;59492;45.638;11.714;2023-01-16T15:59:49;5.50;;;4.70;;
71648;SDS011;59492;45.638;11.714;2023-01-16T16:04:48;4.40;;;3.90;;
71648;SDS011;59492;45.638;11.714;2023-01-16T16:07:17;4.20;;;3.70;;
71648;SDS011;59492;45.638;11.714;2023-01-16T16:09:43;4.40;;;3.90;;
71648;SDS011;59492;45.638;11.714;2023-01-16T16:12:11;4.30;;;3.80;;
71648;SDS011;59492;45.638;11.714;2023-01-16T16:14:37;6.10;;;4.30;;
71648;SDS011;59492;45.638;11.714;2023-01-16T16:17:25;4.90;;;4.20;;
71648;SDS011;59492;45.638;11.714;2023-01-16T16:20:27;5.80;;;4.20;;
71648;SDS011;59492;45.638;11.714;2023-01-16T16:22:55;6.50;;;4.30;;
71648;SDS011;59492;45.638;11.714;2023-01-16T16:28:28;5.90;;;4.30;;
71648;SDS011;59492;45.638;11.714;2023-01-16T16:34:04;5.20;;;4.10;;
71648;SDS011;59492;45.638;11.714;2023-01-16T16:36:42;4.60;;;4.00;;
71648;SDS011;59492;45.638;11.714;2023-01-16T16:47:42;4.40;;;3.70;;
71648;SDS011;59492;45.638;11.714;2023-01-16T16:50:31;6.00;;;3.90;;
71648;SDS011;59492;45.638;11.714;2023-01-16T16:55:39;5.50;;;3.70;;
71648;SDS011;59492;45.638;11.714;2023-01-16T16:58:15;4.60;;;3.90;;
71648;SDS011;59492;45.638;11.714;2023-01-16T17:00:45;5.10;;;3.80;;
71648;SDS011;59492;45.638;11.714;2023-01-16T17:03:23;5.00;;;3.70;;
71648;SDS011;59492;45.638;11.714;2023-01-16T17:05:52;5.20;;;3.60;;
71648;SDS011;59492;45.638;11.714;2023-01-16T17:08:20;5.50;;;3.50;;
71648;SDS011;59492;45.638;11.714;2023-01-16T17:10:46;8.20;;;3.50;;
71648;SDS011;59492;45.638;11.714;2023-01-16T17:13:14;4.30;;;3.50;;
71648;SDS011;59492;45.638;11.714;2023-01-16T17:15:41;4.30;;;3.00;;
71648;SDS011;59492;45.638;11.714;2023-01-16T17:18:09;3.80;;;3.40;;
71648;SDS011;59492;45.638;11.714;2023-01-16T17:20:39;5.20;;;3.30;;
71648;SDS011;59492;45.638;11.714;2023-01-16T17:23:12;5.00;;;3.50;;
71648;SDS011;59492;45.638;11.714;2023-01-16T17:25:39;3.70;;;3.10;;
71648;SDS011;59492;45.638;11.714;2023-01-16T17:28:10;4.30;;;3.50;;
71648;SDS011;59492;45.638;11.714;2023-01-16T17:30:37;4.60;;;3.50;;
71648;SDS011;59492;45.638;11.714;2023-01-16T17:33:21;4.50;;;3.20;;
71648;SDS011;59492;45.638;11.714;2023-01-16T17:35:48;3.80;;;3.20;;
71648;SDS011;59492;45.638;11.714;2023-01-16T17:38:34;5.40;;;3.30;;
71648;SDS011;59492;45.638;11.714;2023-01-16T17:41:05;4.50;;;2.90;;
71648;SDS011;59492;45.638;11.714;2023-01-16T17:43:37;4.00;;;3.10;;
71648;SDS011;59492;45.638;11.714;2023-01-16T17:46:21;5.70;;;3.10;;
71648;SDS011;59492;45.638;11.714;2023-01-16T17:48:48;3.30;;;2.90;;
71648;SDS011;59492;45.638;11.714;2023-01-16T17:51:15;6.40;;;3.60;;
71648;SDS011;59492;45.638;11.714;2023-01-16T17:53:47;4.20;;;3.00;;
71648;SDS011;59492;45.638;11.714;2023-01-16T17:56:13;4.20;;;3.10;;